Time;durP1;ratioP1;P1;durP2;ratioP2;P2;SDS_P1;SDS_P2;PMS_P1;PMS_P2;Temp;Humidity;BMP_temperature;BMP_pressure;BME280_temperature;BME280_humidity;BME280_pressure;Samples;Min_cycle;Max_cycle;Signal;HPM_P1;HPM_P2
2023/06/24 00:01:13;;;;;;;10.80;8.65;;;17.50;99.90;;;;;;4984342;28;20046;-50
2023/06/24 00:03:39;;;;;;;12.05;9.38;;;17.50;99.90;;;;;;4984655;28;20042;-53
2023/06/24 00:06:04;;;;;;;11.25;8.73;;;17.40;99.90;;;;;;4984064;28;20418;-45
2023/06/24 00:08:36;;;;;;;13.50;9.02;;;17.30;99.90;;;;;;4985519;28;20401;-51
2023/06/24 00:11:03;;;;;;;11.35;8.88;;;17.40;99.90;;;;;;4985382;28;20467;-50
2023/06/24 00:13:29;;;;;;;11.02;8.93;;;17.30;99.90;;;;;;4985180;28;20112;-53
2023/06/24 00:15:55;;;;;;;12.23;8.68;;;17.30;99.90;;;;;;4965868;28;20839;-49
2023/06/24 00:18:24;;;;;;;10.73;8.88;;;17.30;99.90;;;;;;4965120;28;20122;-55
2023/06/24 00:20:50;;;;;;;13.05;10.07;;;17.20;99.90;;;;;;4964568;28;20886;-52
2023/06/24 00:23:24;;;;;;;11.45;9.00;;;17.20;99.90;;;;;;4964698;28;20446;-48
2023/06/24 00:25:50;;;;;;;11.55;8.95;;;17.10;99.90;;;;;;4964446;28;20394;-45
2023/06/24 00:28:16;;;;;;;13.45;9.23;;;17.10;99.90;;;;;;4964722;28;20045;-51
2023/06/24 00:30:41;;;;;;;10.98;8.30;;;17.10;99.90;;;;;;4971469;28;20741;-47
2023/06/24 00:33:10;;;;;;;12.27;8.68;;;17.00;99.90;;;;;;4964797;28;20074;-49
2023/06/24 00:35:37;;;;;;;9.48;8.02;;;17.10;99.90;;;;;;4964806;28;20248;-54
2023/06/24 00:38:03;;;;;;;8.98;7.93;;;17.20;99.90;;;;;;4964041;28;20051;-54
2023/06/24 00:40:29;;;;;;;10.18;8.55;;;17.20;99.90;;;;;;4965730;28;20046;-51
2023/06/24 00:42:55;;;;;;;11.43;8.82;;;17.20;99.90;;;;;;4964741;28;20482;-56
2023/06/24 00:45:22;;;;;;;10.40;8.93;;;17.20;99.90;;;;;;4964806;28;20653;-51
2023/06/24 00:47:48;;;;;;;10.18;8.98;;;17.10;99.90;;;;;;4965180;28;20050;-49
2023/06/24 00:50:15;;;;;;;13.18;8.95;;;17.00;99.90;;;;;;4963631;28;20182;-55
2023/06/24 00:52:43;;;;;;;11.85;9.23;;;16.90;99.90;;;;;;4964730;28;20055;-51
2023/06/24 00:55:14;;;;;;;11.15;8.88;;;16.80;99.90;;;;;;4965348;28;20149;-53
2023/06/24 00:57:42;;;;;;;11.63;8.90;;;16.80;99.90;;;;;;4967355;28;20145;-55
2023/06/24 01:00:16;;;;;;;11.20;8.98;;;16.80;99.90;;;;;;4968694;28;20066;-60
2023/06/24 01:02:43;;;;;;;11.45;9.45;;;16.80;99.90;;;;;;4987780;28;20125;-56
2023/06/24 01:05:12;;;;;;;12.10;9.43;;;16.80;99.90;;;;;;4986353;28;20188;-49
2023/06/24 01:07:38;;;;;;;10.18;8.55;;;16.80;99.90;;;;;;4987712;28;20097;-48
2023/06/24 01:10:06;;;;;;;12.75;9.38;;;16.80;99.90;;;;;;4987270;28;20053;-53
2023/06/24 01:12:34;;;;;;;10.85;9.43;;;16.80;99.90;;;;;;5150584;22;20279;-56
2023/06/24 01:15:01;;;;;;;11.50;9.82;;;16.70;99.90;;;;;;4981899;28;20093;-48
2023/06/24 01:17:57;;;;;;;11.98;9.70;;;16.60;99.90;;;;;;4975533;28;20038;-54
2023/06/24 01:20:46;;;;;;;11.27;9.30;;;16.60;99.90;;;;;;4986842;28;20054;-49
2023/06/24 01:23:30;;;;;;;11.02;9.88;;;16.50;99.90;;;;;;4985666;28;20053;-54
2023/06/24 01:26:13;;;;;;;11.65;9.85;;;16.40;99.90;;;;;;4987455;28;20085;-50
2023/06/24 01:29:00;;;;;;;10.85;9.75;;;16.40;99.90;;;;;;4986085;28;20522;-52
2023/06/24 01:31:50;;;;;;;13.35;10.60;;;16.40;99.90;;;;;;4986987;28;20096;-56
2023/06/24 01:34:36;;;;;;;14.07;10.80;;;16.30;99.90;;;;;;4978299;28;20053;-50
2023/06/24 01:37:21;;;;;;;13.35;10.52;;;16.30;99.90;;;;;;4968043;28;20038;-52
2023/06/24 01:40:10;;;;;;;14.65;11.30;;;16.30;99.90;;;;;;4967289;28;20050;-53
2023/06/24 01:42:46;;;;;;;12.25;10.77;;;16.30;99.90;;;;;;4967737;28;20485;-52
2023/06/24 01:45:21;;;;;;;14.07;10.60;;;16.30;99.90;;;;;;4967033;28;20101;-50
2023/06/24 01:47:48;;;;;;;12.60;11.05;;;16.30;99.90;;;;;;4966661;28;20076;-51
2023/06/24 01:50:19;;;;;;;12.80;10.82;;;16.30;99.90;;;;;;4966551;28;20055;-52
2023/06/24 01:52:46;;;;;;;14.00;11.60;;;16.20;99.90;;;;;;4967291;28;20520;-51
2023/06/24 01:55:18;;;;;;;13.63;10.75;;;16.20;99.90;;;;;;4966587;28;20900;-56
2023/06/24 01:57:46;;;;;;;14.10;10.63;;;16.20;99.90;;;;;;4967104;28;20057;-45
2023/06/24 02:00:12;;;;;;;13.32;10.90;;;16.20;99.90;;;;;;4967121;28;20093;-50
2023/06/24 02:02:39;;;;;;;12.95;10.88;;;16.10;99.90;;;;;;4967162;28;20051;-49
2023/06/24 02:05:05;;;;;;;12.68;11.23;;;16.10;99.90;;;;;;4980719;28;20437;-56
2023/06/24 02:07:32;;;;;;;17.05;11.20;;;16.10;99.90;;;;;;4986629;28;20081;-48
2023/06/24 02:10:00;;;;;;;15.38;11.27;;;16.00;99.90;;;;;;4985027;28;20042;-56
2023/06/24 02:12:28;;;;;;;13.82;11.77;;;16.10;99.90;;;;;;4986629;28;20085;-52
2023/06/24 02:14:56;;;;;;;14.23;11.05;;;16.00;99.90;;;;;;4986895;28;20046;-49
2023/06/24 02:17:25;;;;;;;14.40;12.05;;;16.10;99.90;;;;;;4986111;28;20081;-53
2023/06/24 02:19:52;;;;;;;15.18;12.13;;;16.10;99.90;;;;;;4985650;28;20038;-52
2023/06/24 02:22:18;;;;;;;14.15;12.27;;;16.00;99.90;;;;;;4984784;28;20430;-46
2023/06/24 02:24:44;;;;;;;15.93;13.18;;;16.20;99.90;;;;;;4986311;28;20598;-53
2023/06/24 02:27:11;;;;;;;16.75;13.07;;;16.00;99.90;;;;;;4982048;28;20069;-53
2023/06/24 02:29:39;;;;;;;15.45;13.07;;;16.00;99.90;;;;;;4983534;28;20042;-44
2023/06/24 02:32:05;;;;;;;17.73;13.90;;;16.00;99.90;;;;;;4986712;28;20039;-48
2023/06/24 02:34:31;;;;;;;17.13;13.63;;;16.00;99.90;;;;;;4985584;28;20038;-56
2023/06/24 02:36:57;;;;;;;16.75;13.32;;;15.90;99.90;;;;;;4985005;28;20966;-50
2023/06/24 02:39:23;;;;;;;16.15;13.65;;;16.00;99.90;;;;;;4986340;28;20050;-55
2023/06/24 02:41:49;;;;;;;21.23;14.50;;;16.00;99.90;;;;;;4978742;28;20117;-51
2023/06/24 02:44:15;;;;;;;15.00;12.90;;;16.00;99.90;;;;;;4967223;28;20553;-48
2023/06/24 02:46:43;;;;;;;18.67;14.80;;;16.00;99.90;;;;;;4966645;28;20058;-53
2023/06/24 02:49:11;;;;;;;19.42;14.57;;;15.90;99.90;;;;;;4966246;28;20508;-51
2023/06/24 02:51:39;;;;;;;16.13;14.32;;;15.90;99.90;;;;;;4966632;28;20046;-47
2023/06/24 02:54:05;;;;;;;16.95;13.85;;;15.90;99.90;;;;;;4967280;28;20126;-48
2023/06/24 02:56:32;;;;;;;18.40;15.15;;;15.90;99.90;;;;;;4966220;28;20363;-54
2023/06/24 02:58:58;;;;;;;19.52;15.02;;;15.90;99.90;;;;;;4965869;28;20058;-52
2023/06/24 03:01:27;;;;;;;18.58;14.95;;;15.90;99.90;;;;;;4973268;28;20042;-56
2023/06/24 03:03:54;;;;;;;18.58;14.82;;;15.80;99.90;;;;;;4985528;28;20108;-50
2023/06/24 03:06:21;;;;;;;17.13;14.85;;;15.80;99.90;;;;;;4984791;28;20049;-52
2023/06/24 03:08:48;;;;;;;17.73;15.27;;;15.80;99.90;;;;;;4985548;28;20058;-54
2023/06/24 03:11:14;;;;;;;18.10;15.50;;;15.80;99.90;;;;;;4984730;28;20127;-48
2023/06/24 03:13:40;;;;;;;16.90;14.75;;;15.80;99.90;;;;;;4984538;28;20137;-45
2023/06/24 03:16:12;;;;;;;18.55;14.93;;;15.80;99.90;;;;;;4985785;28;20103;-56
2023/06/24 03:18:44;;;;;;;19.23;14.73;;;15.70;99.90;;;;;;4983304;28;20761;-55
2023/06/24 03:21:10;;;;;;;18.13;15.02;;;15.80;99.90;;;;;;4984615;28;20054;-53
2023/06/24 03:23:36;;;;;;;18.33;15.18;;;15.70;99.90;;;;;;4986232;28;20396;-48
2023/06/24 03:26:02;;;;;;;19.83;14.20;;;15.70;99.90;;;;;;4985764;28;20053;-55
2023/06/24 03:28:30;;;;;;;21.13;14.50;;;15.70;99.90;;;;;;4985524;28;20050;-45
2023/06/24 03:30:56;;;;;;;17.60;14.32;;;15.70;99.90;;;;;;4985222;28;20082;-50
2023/06/24 03:33:24;;;;;;;20.10;14.93;;;15.80;99.90;;;;;;4985786;28;20073;-51
2023/06/24 03:35:50;;;;;;;17.98;14.85;;;15.80;99.90;;;;;;4984255;28;20062;-52
2023/06/24 03:38:16;;;;;;;19.13;14.23;;;15.80;99.90;;;;;;4985488;28;20069;-51
2023/06/24 03:40:43;;;;;;;16.15;13.93;;;15.70;99.90;;;;;;4984287;28;20034;-45
2023/06/24 03:43:09;;;;;;;16.45;14.15;;;15.80;99.90;;;;;;4986267;28;20050;-49
2023/06/24 03:45:35;;;;;;;18.30;13.52;;;15.80;99.90;;;;;;4984764;28;20500;-53
2023/06/24 03:48:00;;;;;;;17.15;14.13;;;15.80;99.90;;;;;;4985368;28;20100;-52
2023/06/24 03:50:26;;;;;;;15.48;13.18;;;15.80;99.90;;;;;;4984456;28;20047;-54
2023/06/24 03:52:52;;;;;;;17.60;13.43;;;15.80;99.90;;;;;;4984395;28;20089;-56
2023/06/24 03:55:17;;;;;;;20.73;14.23;;;15.90;99.90;;;;;;4984015;28;20038;-46
2023/06/24 03:57:43;;;;;;;19.63;14.13;;;15.90;99.90;;;;;;4985091;28;20082;-51
2023/06/24 04:00:15;;;;;;;16.30;13.77;;;15.90;99.90;;;;;;4985149;28;20070;-48
2023/06/24 04:02:41;;;;;;;17.10;13.65;;;15.90;99.90;;;;;;4983959;28;20061;-50
2023/06/24 04:05:07;;;;;;;18.33;14.35;;;15.90;99.90;;;;;;4984490;28;20050;-51
2023/06/24 04:07:35;;;;;;;16.90;12.85;;;16.00;99.90;;;;;;4984666;28;20045;-52
2023/06/24 04:10:02;;;;;;;18.33;13.20;;;16.00;99.90;;;;;;4984102;28;20050;-48
2023/06/24 04:12:28;;;;;;;16.85;13.50;;;16.10;99.90;;;;;;4983261;28;20132;-55
2023/06/24 04:14:53;;;;;;;15.73;12.75;;;16.20;99.90;;;;;;4984752;28;20054;-52
2023/06/24 04:17:19;;;;;;;16.88;13.35;;;16.40;99.90;;;;;;4984821;28;20042;-55
2023/06/24 04:19:45;;;;;;;17.00;13.75;;;16.50;99.90;;;;;;4983588;28;20488;-54
2023/06/24 04:22:10;;;;;;;18.67;13.02;;;16.50;99.90;;;;;;4984007;28;20423;-50
2023/06/24 04:24:36;;;;;;;15.23;12.70;;;16.50;99.90;;;;;;4984771;28;20100;-56
2023/06/24 04:27:01;;;;;;;14.02;12.00;;;16.40;99.90;;;;;;4982717;28;20053;-46
2023/06/24 04:29:27;;;;;;;16.38;12.68;;;16.40;99.90;;;;;;4986516;28;20073;-56
2023/06/24 04:31:53;;;;;;;16.63;12.57;;;16.40;99.90;;;;;;4974051;28;20043;-51
2023/06/24 04:34:18;;;;;;;15.27;12.65;;;16.50;99.90;;;;;;4968176;28;20047;-55
2023/06/24 04:36:44;;;;;;;16.52;12.25;;;16.50;99.90;;;;;;4968868;28;20548;-53
2023/06/24 04:39:09;;;;;;;14.48;11.98;;;16.50;99.90;;;;;;4968619;28;20046;-47
2023/06/24 04:41:35;;;;;;;14.45;12.90;;;16.50;99.90;;;;;;4968371;28;20046;-57
2023/06/24 04:44:00;;;;;;;15.35;11.82;;;16.50;99.90;;;;;;4966344;28;20158;-47
2023/06/24 04:46:26;;;;;;;14.50;12.52;;;16.60;99.90;;;;;;4968138;28;20046;-53
2023/06/24 04:48:52;;;;;;;15.48;12.18;;;16.60;99.90;;;;;;4966909;28;20091;-50
2023/06/24 04:51:17;;;;;;;14.32;11.45;;;16.60;99.90;;;;;;4968127;28;20031;-46
2023/06/24 04:53:43;;;;;;;13.20;11.50;;;16.70;99.90;;;;;;4967222;28;20074;-55
2023/06/24 04:56:08;;;;;;;13.80;11.27;;;17.00;99.90;;;;;;4968554;28;20039;-54
2023/06/24 04:58:34;;;;;;;12.35;11.05;;;17.30;99.90;;;;;;4967823;28;20177;-53
2023/06/24 05:01:00;;;;;;;15.00;10.60;;;17.60;99.90;;;;;;4966312;28;20050;-52
2023/06/24 05:03:25;;;;;;;14.00;10.50;;;17.70;99.90;;;;;;4967561;28;20042;-49
2023/06/24 05:05:51;;;;;;;13.38;10.18;;;17.90;99.90;;;;;;4968154;28;20031;-51
2023/06/24 05:08:16;;;;;;;13.65;10.32;;;17.90;99.90;;;;;;4968537;28;20120;-47
2023/06/24 05:10:42;;;;;;;12.85;9.70;;;18.00;99.90;;;;;;4968046;28;20042;-52
2023/06/24 05:13:08;;;;;;;12.88;9.82;;;18.10;99.90;;;;;;4968436;28;20069;-55
2023/06/24 05:15:33;;;;;;;12.00;9.52;;;18.20;99.90;;;;;;4968112;28;20635;-45
2023/06/24 05:17:59;;;;;;;14.63;9.30;;;18.30;99.90;;;;;;4967335;28;20129;-50
2023/06/24 05:20:25;;;;;;;11.98;9.65;;;18.40;99.90;;;;;;4968239;28;20054;-56
2023/06/24 05:22:51;;;;;;;13.48;9.40;;;18.60;99.90;;;;;;4968048;28;20054;-48
2023/06/24 05:25:16;;;;;;;12.30;8.73;;;18.80;99.90;;;;;;4968617;28;20049;-54
2023/06/24 05:27:44;;;;;;;11.27;9.10;;;18.90;99.90;;;;;;4966830;28;20082;-53
2023/06/24 05:30:10;;;;;;;10.25;8.55;;;19.10;99.90;;;;;;4967884;28;20043;-51
2023/06/24 05:32:36;;;;;;;11.25;7.97;;;19.30;99.90;;;;;;4967953;28;20051;-54
2023/06/24 05:35:01;;;;;;;12.77;8.90;;;19.50;99.90;;;;;;4966343;28;20212;-48
2023/06/24 05:37:27;;;;;;;11.70;9.10;;;19.80;99.90;;;;;;4967638;28;20094;-56
2023/06/24 05:39:52;;;;;;;10.32;8.05;;;20.00;99.90;;;;;;4967788;28;20058;-47
2023/06/24 05:42:18;;;;;;;8.93;7.78;;;20.30;99.90;;;;;;4967339;28;20082;-55
2023/06/24 05:44:44;;;;;;;12.65;8.90;;;20.50;99.90;;;;;;4966651;28;20046;-46
2023/06/24 05:47:09;;;;;;;11.20;8.55;;;20.70;99.90;;;;;;4966724;28;20109;-50
2023/06/24 05:49:35;;;;;;;10.52;8.00;;;20.90;99.90;;;;;;4966902;28;20049;-55
2023/06/24 05:52:00;;;;;;;11.63;8.15;;;20.90;99.90;;;;;;4966872;28;20087;-48
2023/06/24 05:54:26;;;;;;;9.82;8.23;;;21.10;99.90;;;;;;4967724;28;20404;-54
2023/06/24 05:56:52;;;;;;;11.45;8.50;;;21.20;99.90;;;;;;4967141;28;20407;-44
2023/06/24 05:59:17;;;;;;;10.52;7.65;;;21.30;99.90;;;;;;4967895;28;20061;-55
2023/06/24 06:01:43;;;;;;;12.45;7.80;;;21.40;99.90;;;;;;4966307;28;20117;-53
2023/06/24 06:04:08;;;;;;;10.60;8.10;;;21.60;99.90;;;;;;4966233;28;20039;-51
2023/06/24 06:06:34;;;;;;;12.50;8.05;;;21.80;99.90;;;;;;4966114;28;20474;-56
2023/06/24 06:09:00;;;;;;;10.48;7.65;;;22.00;99.30;;;;;;4964373;28;20055;-44
2023/06/24 06:11:26;;;;;;;9.27;7.80;;;21.90;99.30;;;;;;4967564;28;20443;-57
2023/06/24 06:13:52;;;;;;;11.65;7.97;;;21.70;99.40;;;;;;4967182;28;20096;-45
2023/06/24 06:16:18;;;;;;;11.73;8.32;;;21.50;99.70;;;;;;4967075;28;20079;-56
2023/06/24 06:18:43;;;;;;;14.85;8.40;;;21.50;99.70;;;;;;4965281;28;20617;-53
2023/06/24 06:21:09;;;;;;;10.05;8.13;;;21.60;99.90;;;;;;4965501;28;20047;-50
2023/06/24 06:23:35;;;;;;;9.75;7.97;;;21.90;99.70;;;;;;4966942;28;20471;-55
2023/06/24 06:26:00;;;;;;;9.77;8.13;;;22.00;99.30;;;;;;4966483;28;20126;-46
2023/06/24 06:28:26;;;;;;;9.68;7.75;;;22.00;99.60;;;;;;4966996;28;20480;-54
2023/06/24 06:30:51;;;;;;;10.48;8.15;;;22.10;99.70;;;;;;4966948;28;20046;-47
2023/06/24 06:33:17;;;;;;;8.57;7.45;;;22.20;99.60;;;;;;4971053;28;20058;-56
2023/06/24 06:35:43;;;;;;;9.80;8.27;;;22.30;99.20;;;;;;4974619;28;20131;-54
2023/06/24 06:38:08;;;;;;;12.35;8.13;;;22.20;99.30;;;;;;4966874;28;20395;-51
2023/06/24 06:40:35;;;;;;;11.00;8.82;;;22.20;99.20;;;;;;4966631;28;20035;-55
2023/06/24 06:43:01;;;;;;;9.85;8.25;;;22.40;99.20;;;;;;4965835;28;20054;-49
2023/06/24 06:45:26;;;;;;;12.23;8.50;;;22.40;99.20;;;;;;4966577;28;20413;-56
2023/06/24 06:47:52;;;;;;;12.40;8.18;;;22.60;99.10;;;;;;4966996;28;20050;-48
2023/06/24 06:50:18;;;;;;;10.10;8.32;;;22.50;99.00;;;;;;4966467;28;20121;-54
2023/06/24 06:52:43;;;;;;;9.85;8.30;;;22.60;99.00;;;;;;4965458;28;20043;-55
2023/06/24 06:55:09;;;;;;;9.77;8.10;;;22.60;98.90;;;;;;4967101;28;20077;-51
2023/06/24 06:57:35;;;;;;;10.50;8.10;;;22.80;99.00;;;;;;4965474;28;20093;-52
2023/06/24 07:00:01;;;;;;;10.70;8.15;;;22.70;98.60;;;;;;4965553;28;20481;-49
2023/06/24 07:02:27;;;;;;;9.07;7.78;;;22.60;98.80;;;;;;4966703;28;20090;-46
2023/06/24 07:04:52;;;;;;;10.55;7.75;;;22.50;99.30;;;;;;4965859;28;20142;-56
2023/06/24 07:07:18;;;;;;;10.85;7.88;;;22.40;99.30;;;;;;4965710;28;20050;-52
2023/06/24 07:09:43;;;;;;;10.32;7.50;;;22.30;99.90;;;;;;4964903;28;20529;-53
2023/06/24 07:12:09;;;;;;;8.93;7.22;;;22.20;99.90;;;;;;4966145;28;20055;-56
2023/06/24 07:14:35;;;;;;;13.95;7.20;;;22.20;99.90;;;;;;4965986;28;20078;-52
2023/06/24 07:17:00;;;;;;;10.35;7.30;;;22.20;99.90;;;;;;4965617;28;20453;-53
2023/06/24 07:19:26;;;;;;;9.70;7.35;;;22.30;99.90;;;;;;4965145;28;20042;-49
2023/06/24 07:21:52;;;;;;;9.93;7.30;;;22.20;99.90;;;;;;4964812;28;20530;-54
2023/06/24 07:24:17;;;;;;;11.07;7.30;;;22.20;99.90;;;;;;4965988;28;20047;-56
2023/06/24 07:26:43;;;;;;;11.18;7.97;;;22.20;99.90;;;;;;4968608;28;20129;-48
2023/06/24 07:29:09;;;;;;;8.73;7.82;;;22.20;99.90;;;;;;4974217;28;20196;-56
2023/06/24 07:31:35;;;;;;;11.30;8.15;;;22.40;99.90;;;;;;4982592;28;20122;-54
2023/06/24 07:34:01;;;;;;;9.30;7.40;;;22.50;99.90;;;;;;4978838;28;20042;-45
2023/06/24 07:36:27;;;;;;;9.93;8.23;;;22.70;99.90;;;;;;4982298;28;20074;-56
2023/06/24 07:38:52;;;;;;;11.00;7.75;;;23.00;99.60;;;;;;4980520;28;20498;-53
2023/06/24 07:41:18;;;;;;;10.77;8.32;;;23.00;99.70;;;;;;4981562;28;20035;-52
2023/06/24 07:43:43;;;;;;;10.40;8.68;;;23.20;99.00;;;;;;4981623;28;20133;-56
2023/06/24 07:46:09;;;;;;;11.68;8.60;;;23.30;99.10;;;;;;4976108;28;20047;-47
2023/06/24 07:48:35;;;;;;;9.15;8.20;;;23.50;99.00;;;;;;4963806;28;20706;-52
2023/06/24 07:51:01;;;;;;;14.13;8.60;;;23.60;98.80;;;;;;4963183;28;20039;-56
2023/06/24 07:53:26;;;;;;;9.80;8.35;;;23.80;98.70;;;;;;4962292;28;20082;-52
2023/06/24 07:55:52;;;;;;;11.80;8.70;;;23.90;98.60;;;;;;4963068;28;20039;-56
2023/06/24 07:58:19;;;;;;;10.50;8.70;;;24.10;98.40;;;;;;4962819;28;20041;-50
2023/06/24 08:00:45;;;;;;;12.43;9.73;;;24.10;97.80;;;;;;4962005;28;20205;-47
2023/06/24 08:03:12;;;;;;;11.10;9.10;;;24.00;97.80;;;;;;4962276;28;20042;-54
2023/06/24 08:05:39;;;;;;;9.93;8.55;;;23.90;97.70;;;;;;4961617;28;20134;-50
2023/06/24 08:08:05;;;;;;;11.75;7.97;;;23.90;98.00;;;;;;4962303;28;20446;-54
2023/06/24 08:10:31;;;;;;;11.50;8.90;;;23.90;98.10;;;;;;4962223;28;20188;-52
2023/06/24 08:12:56;;;;;;;9.73;8.32;;;24.00;97.50;;;;;;4962420;28;20079;-55
2023/06/24 08:15:22;;;;;;;10.90;8.60;;;24.00;97.40;;;;;;4945482;28;20169;-56
2023/06/24 08:17:55;;;;;;;12.65;8.48;;;24.00;97.30;;;;;;4960740;28;20046;-51
2023/06/24 08:20:21;;;;;;;13.27;8.18;;;24.10;97.40;;;;;;4979453;28;20042;-51
2023/06/24 08:22:47;;;;;;;12.73;8.35;;;24.20;97.30;;;;;;4980496;28;20046;-56
2023/06/24 08:25:12;;;;;;;10.75;8.95;;;24.30;96.90;;;;;;4981470;28;20038;-54
2023/06/24 08:27:38;;;;;;;11.05;8.48;;;24.40;96.60;;;;;;4981302;28;20078;-51
2023/06/24 08:30:05;;;;;;;13.38;9.20;;;24.40;96.80;;;;;;4981861;28;20045;-56
2023/06/24 08:32:31;;;;;;;11.00;8.10;;;24.50;96.60;;;;;;4979893;28;20181;-50
2023/06/24 08:34:57;;;;;;;11.70;7.40;;;24.60;97.00;;;;;;4972119;28;20118;-56
2023/06/24 08:37:22;;;;;;;10.30;7.70;;;24.70;96.60;;;;;;4964858;28;20119;-53
2023/06/24 08:39:48;;;;;;;11.73;7.38;;;24.60;96.90;;;;;;4973764;28;20073;-49
2023/06/24 08:42:13;;;;;;;9.68;7.60;;;24.70;96.70;;;;;;4964590;28;20057;-54
2023/06/24 08:44:39;;;;;;;12.57;7.20;;;24.60;96.20;;;;;;4965457;28;20154;-51
2023/06/24 08:47:05;;;;;;;8.65;7.57;;;24.60;95.80;;;;;;4964819;28;20047;-48
2023/06/24 08:49:32;;;;;;;10.52;6.65;;;24.50;95.90;;;;;;4964065;28;20529;-55
2023/06/24 08:52:07;;;;;;;10.23;7.65;;;24.60;95.50;;;;;;4964608;28;20039;-48
2023/06/24 08:54:35;;;;;;;10.40;7.30;;;24.70;95.20;;;;;;4964449;28;20047;-47
2023/06/24 08:57:06;;;;;;;13.35;6.55;;;24.70;95.80;;;;;;4964367;28;20134;-60
2023/06/24 08:59:33;;;;;;;10.30;5.95;;;24.80;95.50;;;;;;4963514;28;20128;-55
2023/06/24 09:01:59;;;;;;;7.88;6.68;;;24.90;95.30;;;;;;4963843;28;20495;-54
2023/06/24 09:04:24;;;;;;;10.40;7.15;;;25.00;94.90;;;;;;4963952;28;20034;-50
2023/06/24 09:06:50;;;;;;;8.90;7.00;;;25.00;95.10;;;;;;4964581;28;20525;-54
2023/06/24 09:09:20;;;;;;;8.68;6.05;;;25.00;94.20;;;;;;4965322;28;20043;-52
2023/06/24 09:12:13;;;;;;;7.97;5.35;;;24.90;94.40;;;;;;4964770;28;20168;-57
2023/06/24 09:14:40;;;;;;;7.65;5.28;;;25.00;93.50;;;;;;4963449;28;20482;-46
2023/06/24 09:17:06;;;;;;;6.88;5.10;;;25.20;93.40;;;;;;4966794;28;20170;-51
2023/06/24 09:19:36;;;;;;;7.15;5.18;;;25.40;93.40;;;;;;4969358;28;20121;-55
2023/06/24 09:22:06;;;;;;;10.27;4.88;;;25.70;92.80;;;;;;4974645;28;20038;-52
2023/06/24 09:24:36;;;;;;;7.35;5.40;;;25.80;92.60;;;;;;4965480;28;20082;-54
2023/06/24 09:27:03;;;;;;;13.10;5.43;;;25.90;92.40;;;;;;4965141;28;20148;-50
2023/06/24 09:29:32;;;;;;;8.93;5.60;;;26.00;91.90;;;;;;4965548;28;20047;-46
2023/06/24 09:31:59;;;;;;;6.38;5.15;;;26.00;91.80;;;;;;4963936;28;20047;-52
2023/06/24 09:34:28;;;;;;;8.05;4.93;;;26.00;91.50;;;;;;4963812;28;20409;-51
2023/06/24 09:36:55;;;;;;;7.65;5.80;;;26.00;91.90;;;;;;4965147;28;20038;-50
2023/06/24 09:39:27;;;;;;;7.03;5.40;;;26.10;91.30;;;;;;4966456;28;20034;-53
2023/06/24 09:41:53;;;;;;;7.15;5.53;;;26.20;91.60;;;;;;4965077;28;20062;-57
2023/06/24 09:44:19;;;;;;;7.50;5.85;;;26.20;91.40;;;;;;4964596;28;20038;-59
2023/06/24 09:46:45;;;;;;;7.22;5.80;;;26.20;91.60;;;;;;4964890;28;20047;-57
2023/06/24 09:49:11;;;;;;;6.90;5.07;;;26.30;91.60;;;;;;4963346;28;20125;-47
2023/06/24 09:51:45;;;;;;;9.10;5.63;;;26.40;91.60;;;;;;4964628;28;20542;-59
2023/06/24 09:54:13;;;;;;;6.50;5.30;;;26.60;91.70;;;;;;4965046;28;20065;-58
2023/06/24 09:57:02;;;;;;;7.88;4.75;;;26.90;91.50;;;;;;4964159;28;20042;-56
2023/06/24 09:59:29;;;;;;;5.60;4.75;;;27.10;91.30;;;;;;4964807;28;20397;-59
2023/06/24 10:01:56;;;;;;;6.97;5.18;;;27.30;91.30;;;;;;4963799;28;20115;-51
2023/06/24 10:04:23;;;;;;;7.75;4.63;;;27.50;91.50;;;;;;4963783;28;20129;-59
2023/06/24 10:06:49;;;;;;;8.32;4.60;;;27.60;90.80;;;;;;4964081;28;20264;-54
2023/06/24 10:09:17;;;;;;;7.57;4.60;;;27.60;90.10;;;;;;4963748;28;20383;-52
2023/06/24 10:11:44;;;;;;;6.07;4.55;;;27.70;90.80;;;;;;4963822;28;20059;-53
2023/06/24 10:14:10;;;;;;;6.55;4.70;;;27.80;90.80;;;;;;4964785;28;20109;-60
2023/06/24 10:16:36;;;;;;;8.23;4.88;;;27.90;90.30;;;;;;4964250;28;20039;-52
2023/06/24 10:19:03;;;;;;;8.93;4.47;;;27.90;90.00;;;;;;4963554;28;20277;-58
2023/06/24 10:21:52;;;;;;;6.32;4.68;;;27.80;90.10;;;;;;4964220;28;20042;-58
2023/06/24 10:24:35;;;;;;;5.60;4.10;;;27.90;88.90;;;;;;4963403;28;20078;-55
2023/06/24 10:27:15;;;;;;;7.78;4.60;;;27.80;90.10;;;;;;4963935;28;20241;-55
2023/06/24 10:29:45;;;;;;;6.35;4.43;;;27.90;90.00;;;;;;4963745;28;20051;-59
2023/06/24 10:32:11;;;;;;;9.23;4.30;;;28.00;89.80;;;;;;4962271;28;20110;-54
2023/06/24 10:34:42;;;;;;;7.30;4.03;;;28.10;90.00;;;;;;4963288;28;20125;-53
2023/06/24 10:37:07;;;;;;;6.45;3.88;;;28.40;89.60;;;;;;4963113;28;20045;-57
2023/06/24 10:39:44;;;;;;;6.75;4.30;;;28.50;87.90;;;;;;4964066;28;20038;-59
2023/06/24 10:42:37;;;;;;;6.85;4.00;;;28.50;87.10;;;;;;4963506;28;20049;-47
2023/06/24 10:45:09;;;;;;;5.18;3.50;;;28.50;88.70;;;;;;4964228;28;20054;-57
2023/06/24 10:47:42;;;;;;;5.63;4.43;;;28.70;88.30;;;;;;4961827;28;20059;-59
2023/06/24 10:50:10;;;;;;;6.18;4.20;;;28.60;87.70;;;;;;4963808;28;20078;-59
2023/06/24 10:52:41;;;;;;;5.43;4.22;;;28.60;87.00;;;;;;4963671;28;20046;-54
2023/06/24 10:55:07;;;;;;;10.05;4.53;;;28.50;87.40;;;;;;4963214;28;20039;-58
2023/06/24 10:57:33;;;;;;;6.82;3.50;;;28.60;87.30;;;;;;4963955;28;20049;-54
2023/06/24 11:00:03;;;;;;;5.88;4.10;;;28.50;87.30;;;;;;4963811;28;20043;-62
2023/06/24 11:02:29;;;;;;;6.57;4.13;;;28.30;85.70;;;;;;4961625;28;20042;-57
2023/06/24 11:04:59;;;;;;;5.68;4.35;;;28.20;86.30;;;;;;4963776;28;20039;-60
2023/06/24 11:07:27;;;;;;;4.70;3.65;;;28.10;87.50;;;;;;4963049;28;20059;-59
2023/06/24 11:09:58;;;;;;;7.75;3.92;;;28.30;88.00;;;;;;4962632;28;20035;-60
2023/06/24 11:12:29;;;;;;;8.25;3.90;;;28.50;87.00;;;;;;4962035;28;20097;-60
2023/06/24 11:14:59;;;;;;;5.30;3.53;;;28.70;86.90;;;;;;4962905;28;20410;-55
2023/06/24 11:17:26;;;;;;;6.60;4.18;;;29.00;86.40;;;;;;4962459;28;20043;-55
2023/06/24 11:19:56;;;;;;;5.40;3.90;;;28.90;85.60;;;;;;4962887;28;20100;-58
2023/06/24 11:22:23;;;;;;;5.75;4.20;;;28.60;85.30;;;;;;4966012;28;20050;-52
2023/06/24 11:24:49;;;;;;;5.13;3.78;;;28.60;85.50;;;;;;4981849;28;20401;-56
2023/06/24 11:27:14;;;;;;;7.43;4.10;;;28.60;85.70;;;;;;4982488;28;20042;-56
2023/06/24 11:29:40;;;;;;;5.18;4.00;;;28.50;86.20;;;;;;4982359;28;20046;-56
2023/06/24 11:32:09;;;;;;;5.20;4.10;;;28.30;86.20;;;;;;4982432;28;20042;-48
2023/06/24 11:34:38;;;;;;;7.25;4.00;;;28.30;87.30;;;;;;4981451;28;20425;-52
2023/06/24 11:37:14;;;;;;;7.45;3.65;;;28.50;87.30;;;;;;4982715;28;20094;-57
2023/06/24 11:39:40;;;;;;;4.75;3.50;;;28.90;88.10;;;;;;4981018;28;20100;-56
2023/06/24 11:42:10;;;;;;;5.10;3.80;;;29.20;85.80;;;;;;4978691;28;20163;-57
2023/06/24 11:44:43;;;;;;;6.78;4.30;;;29.20;84.20;;;;;;4963264;28;20105;-53
2023/06/24 11:47:10;;;;;;;4.70;3.80;;;29.00;83.50;;;;;;4962306;28;20047;-53
2023/06/24 11:49:52;;;;;;;7.93;3.97;;;28.70;84.80;;;;;;4962381;28;20085;-53
2023/06/24 11:52:17;;;;;;;6.20;4.00;;;28.50;86.10;;;;;;4962195;28;20046;-47
2023/06/24 11:54:43;;;;;;;6.10;4.13;;;28.40;86.60;;;;;;4962368;28;20446;-45
2023/06/24 11:57:09;;;;;;;5.10;4.10;;;28.40;86.00;;;;;;4963047;28;20035;-58
2023/06/24 11:59:35;;;;;;;5.85;3.60;;;28.40;87.20;;;;;;4962585;28;20225;-45
2023/06/24 12:02:03;;;;;;;7.18;3.80;;;28.60;88.00;;;;;;4961392;28;20134;-52
2023/06/24 12:04:30;;;;;;;5.07;3.63;;;29.00;86.90;;;;;;4962015;28;20089;-55
2023/06/24 12:06:57;;;;;;;7.80;3.90;;;29.20;84.00;;;;;;4961921;28;20497;-55
2023/06/24 12:09:23;;;;;;;4.63;3.40;;;29.10;83.30;;;;;;4965132;28;20047;-59
2023/06/24 12:11:48;;;;;;;5.03;3.72;;;29.00;84.10;;;;;;4975423;28;20425;-54
2023/06/24 12:14:14;;;;;;;6.32;3.70;;;28.90;83.80;;;;;;4964902;28;20067;-58
2023/06/24 12:16:40;;;;;;;4.70;3.60;;;28.80;84.80;;;;;;4972390;28;20493;-57
2023/06/24 12:19:09;;;;;;;4.13;3.60;;;28.70;84.70;;;;;;4963224;28;20282;-53
2023/06/24 12:21:35;;;;;;;5.53;3.30;;;28.90;85.00;;;;;;4979636;28;20134;-56
2023/06/24 12:24:02;;;;;;;4.25;3.47;;;29.10;85.10;;;;;;4980845;28;20472;-51
2023/06/24 12:26:27;;;;;;;5.28;3.55;;;29.40;83.70;;;;;;4976779;28;20038;-46
2023/06/24 12:28:56;;;;;;;6.05;4.10;;;29.50;84.80;;;;;;4968913;28;20105;-51
2023/06/24 12:31:22;;;;;;;5.78;3.38;;;29.60;83.20;;;;;;4969896;28;20062;-55
2023/06/24 12:33:48;;;;;;;7.25;3.30;;;29.60;83.10;;;;;;4975490;28;20406;-51
2023/06/24 12:36:14;;;;;;;5.75;3.50;;;29.70;84.10;;;;;;4967303;28;20134;-47
2023/06/24 12:38:40;;;;;;;4.97;3.30;;;29.80;83.10;;;;;;4982753;28;20089;-58
2023/06/24 12:41:05;;;;;;;4.45;3.38;;;29.80;82.90;;;;;;4984146;28;20065;-50